sensor_id;sensor_type;location;lat;lon;timestamp;P1;durP1;ratioP1;P2;durP2;ratioP2
25341;SDS011;13298;48.792;9.154;2023-05-15T00:00:00;4.30;;;3.30;;
25341;SDS011;13298;48.792;9.154;2023-05-15T00:02:26;4.95;;;3.40;;
25341;SDS011;13298;48.792;9.154;2023-05-15T00:04:52;3.38;;;2.97;;
25341;SDS011;13298;48.792;9.154;2023-05-15T00:07:18;3.92;;;3.50;;
25341;SDS011;13298;48.792;9.154;2023-05-15T00:09:43;3.70;;;3.28;;
25341;SDS011;13298;48.792;9.154;2023-05-15T00:12:09;3.63;;;3.08;;
25341;SDS011;13298;48.792;9.154;2023-05-15T00:14:35;3.17;;;2.72;;
25341;SDS011;13298;48.792;9.154;2023-05-15T00:17:00;3.70;;;3.03;;
25341;SDS011;13298;48.792;9.154;2023-05-15T00:19:26;4.00;;;2.90;;
25341;SDS011;13298;48.792;9.154;2023-05-15T00:21:52;4.28;;;3.38;;
25341;SDS011;13298;48.792;9.154;2023-05-15T00:24:20;4.72;;;3.50;;
25341;SDS011;13298;48.792;9.154;2023-05-15T00:26:46;3.42;;;2.83;;
25341;SDS011;13298;48.792;9.154;2023-05-15T00:29:11;4.38;;;3.00;;
25341;SDS011;13298;48.792;9.154;2023-05-15T00:31:37;4.00;;;2.67;;
25341;SDS011;13298;48.792;9.154;2023-05-15T00:34:03;3.53;;;3.00;;
25341;SDS011;13298;48.792;9.154;2023-05-15T00:36:29;3.70;;;2.90;;
25341;SDS011;13298;48.792;9.154;2023-05-15T00:38:55;3.20;;;2.90;;
25341;SDS011;13298;48.792;9.154;2023-05-15T00:41:21;5.22;;;2.90;;
25341;SDS011;13298;48.792;9.154;2023-05-15T00:43:48;4.45;;;2.70;;
25341;SDS011;13298;48.792;9.154;2023-05-15T00:46:16;5.15;;;2.80;;
25341;SDS011;13298;48.792;9.154;2023-05-15T00:48:44;3.78;;;2.85;;
25341;SDS011;13298;48.792;9.154;2023-05-15T00:51:10;5.57;;;3.65;;
25341;SDS011;13298;48.792;9.154;2023-05-15T00:53:36;5.18;;;3.10;;
25341;SDS011;13298;48.792;9.154;2023-05-15T00:56:02;3.97;;;3.33;;
25341;SDS011;13298;48.792;9.154;2023-05-15T00:58:31;3.80;;;3.00;;
25341;SDS011;13298;48.792;9.154;2023-05-15T01:00:57;4.03;;;3.00;;
25341;SDS011;13298;48.792;9.154;2023-05-15T01:03:23;5.25;;;3.00;;
25341;SDS011;13298;48.792;9.154;2023-05-15T01:05:49;5.25;;;2.80;;
25341;SDS011;13298;48.792;9.154;2023-05-15T01:11:03;3.65;;;2.55;;
25341;SDS011;13298;48.792;9.154;2023-05-15T01:13:31;3.95;;;3.00;;
25341;SDS011;13298;48.792;9.154;2023-05-15T01:15:57;3.53;;;2.75;;
25341;SDS011;13298;48.792;9.154;2023-05-15T01:18:23;3.80;;;2.92;;
25341;SDS011;13298;48.792;9.154;2023-05-15T01:23:22;4.10;;;3.15;;
25341;SDS011;13298;48.792;9.154;2023-05-15T01:32:49;3.95;;;2.60;;
25341;SDS011;13298;48.792;9.154;2023-05-15T01:35:40;3.67;;;2.90;;
25341;SDS011;13298;48.792;9.154;2023-05-15T01:41:18;3.20;;;2.85;;
25341;SDS011;13298;48.792;9.154;2023-05-15T01:43:55;3.15;;;2.78;;
25341;SDS011;13298;48.792;9.154;2023-05-15T01:46:26;3.25;;;2.40;;
25341;SDS011;13298;48.792;9.154;2023-05-15T01:48:55;8.90;;;2.85;;
25341;SDS011;13298;48.792;9.154;2023-05-15T01:51:25;3.63;;;2.90;;
25341;SDS011;13298;48.792;9.154;2023-05-15T01:53:52;3.15;;;2.40;;
25341;SDS011;13298;48.792;9.154;2023-05-15T01:56:20;3.15;;;2.75;;
25341;SDS011;13298;48.792;9.154;2023-05-15T01:58:48;3.83;;;2.88;;
25341;SDS011;13298;48.792;9.154;2023-05-15T02:01:15;3.50;;;2.83;;
25341;SDS011;13298;48.792;9.154;2023-05-15T02:03:43;3.58;;;2.83;;
25341;SDS011;13298;48.792;9.154;2023-05-15T02:06:10;3.70;;;3.05;;
25341;SDS011;13298;48.792;9.154;2023-05-15T02:08:37;4.97;;;3.00;;
25341;SDS011;13298;48.792;9.154;2023-05-15T02:11:04;3.75;;;3.03;;
25341;SDS011;13298;48.792;9.154;2023-05-15T02:13:31;3.35;;;2.80;;
25341;SDS011;13298;48.792;9.154;2023-05-15T02:15:58;3.83;;;2.67;;
25341;SDS011;13298;48.792;9.154;2023-05-15T02:18:23;3.28;;;2.70;;
25341;SDS011;13298;48.792;9.154;2023-05-15T02:20:50;3.38;;;3.08;;
25341;SDS011;13298;48.792;9.154;2023-05-15T02:23:15;4.78;;;3.30;;
25341;SDS011;13298;48.792;9.154;2023-05-15T02:28:40;3.42;;;3.08;;
25341;SDS011;13298;48.792;9.154;2023-05-15T02:31:34;4.30;;;3.00;;
25341;SDS011;13298;48.792;9.154;2023-05-15T02:37:03;4.93;;;3.30;;
25341;SDS011;13298;48.792;9.154;2023-05-15T02:39:38;4.60;;;3.03;;
25341;SDS011;13298;48.792;9.154;2023-05-15T02:42:06;4.10;;;2.95;;
25341;SDS011;13298;48.792;9.154;2023-05-15T02:44:34;4.22;;;2.95;;
25341;SDS011;13298;48.792;9.154;2023-05-15T02:47:01;3.78;;;3.13;;
25341;SDS011;13298;48.792;9.154;2023-05-15T02:49:28;4.40;;;3.20;;
25341;SDS011;13298;48.792;9.154;2023-05-15T02:51:54;3.97;;;2.90;;
25341;SDS011;13298;48.792;9.154;2023-05-15T02:54:20;3.58;;;2.85;;
25341;SDS011;13298;48.792;9.154;2023-05-15T02:56:46;3.70;;;3.20;;
25341;SDS011;13298;48.792;9.154;2023-05-15T02:59:11;4.22;;;3.35;;
25341;SDS011;13298;48.792;9.154;2023-05-15T03:01:42;3.85;;;3.22;;
25341;SDS011;13298;48.792;9.154;2023-05-15T03:04:08;5.03;;;3.33;;
25341;SDS011;13298;48.792;9.154;2023-05-15T03:06:34;4.15;;;3.20;;
25341;SDS011;13298;48.792;9.154;2023-05-15T03:09:00;3.70;;;2.90;;
25341;SDS011;13298;48.792;9.154;2023-05-15T03:11:25;4.93;;;3.17;;
25341;SDS011;13298;48.792;9.154;2023-05-15T03:13:51;3.38;;;2.88;;
25341;SDS011;13298;48.792;9.154;2023-05-15T03:16:17;4.03;;;3.50;;
25341;SDS011;13298;48.792;9.154;2023-05-15T03:18:42;3.20;;;2.90;;
25341;SDS011;13298;48.792;9.154;2023-05-15T03:21:08;4.07;;;3.15;;
25341;SDS011;13298;48.792;9.154;2023-05-15T03:23:34;4.40;;;3.00;;
25341;SDS011;13298;48.792;9.154;2023-05-15T03:26:01;4.32;;;3.33;;
25341;SDS011;13298;48.792;9.154;2023-05-15T03:28:26;3.90;;;3.00;;
25341;SDS011;13298;48.792;9.154;2023-05-15T03:30:52;4.78;;;3.25;;
25341;SDS011;13298;48.792;9.154;2023-05-15T03:33:18;3.78;;;3.30;;
25341;SDS011;13298;48.792;9.154;2023-05-15T03:35:44;4.53;;;3.47;;
25341;SDS011;13298;48.792;9.154;2023-05-15T03:38:10;5.47;;;3.20;;
25341;SDS011;13298;48.792;9.154;2023-05-15T03:40:38;4.00;;;2.92;;
25341;SDS011;13298;48.792;9.154;2023-05-15T03:43:05;4.22;;;2.90;;
25341;SDS011;13298;48.792;9.154;2023-05-15T03:45:32;3.90;;;3.33;;
25341;SDS011;13298;48.792;9.154;2023-05-15T03:47:59;4.35;;;3.08;;
25341;SDS011;13298;48.792;9.154;2023-05-15T03:50:25;4.70;;;3.28;;
25341;SDS011;13298;48.792;9.154;2023-05-15T03:52:50;4.35;;;3.00;;
25341;SDS011;13298;48.792;9.154;2023-05-15T03:55:16;3.90;;;3.28;;
25341;SDS011;13298;48.792;9.154;2023-05-15T03:57:42;3.40;;;3.10;;
25341;SDS011;13298;48.792;9.154;2023-05-15T04:00:08;4.05;;;3.28;;
25341;SDS011;13298;48.792;9.154;2023-05-15T04:02:35;4.15;;;3.35;;
25341;SDS011;13298;48.792;9.154;2023-05-15T04:05:04;4.75;;;3.22;;
25341;SDS011;13298;48.792;9.154;2023-05-15T04:07:31;4.72;;;3.35;;
25341;SDS011;13298;48.792;9.154;2023-05-15T04:09:58;7.30;;;3.60;;
25341;SDS011;13298;48.792;9.154;2023-05-15T04:12:28;4.30;;;3.70;;
25341;SDS011;13298;48.792;9.154;2023-05-15T04:14:58;3.85;;;3.30;;
25341;SDS011;13298;48.792;9.154;2023-05-15T04:17:41;4.45;;;3.42;;
25341;SDS011;13298;48.792;9.154;2023-05-15T04:20:12;6.07;;;3.38;;
25341;SDS011;13298;48.792;9.154;2023-05-15T04:22:40;7.00;;;3.28;;
25341;SDS011;13298;48.792;9.154;2023-05-15T04:25:06;4.25;;;3.38;;
25341;SDS011;13298;48.792;9.154;2023-05-15T04:27:33;5.32;;;3.92;;
25341;SDS011;13298;48.792;9.154;2023-05-15T04:30:00;6.10;;;3.72;;
25341;SDS011;13298;48.792;9.154;2023-05-15T04:32:27;4.47;;;3.67;;
25341;SDS011;13298;48.792;9.154;2023-05-15T04:34:54;4.35;;;3.63;;
25341;SDS011;13298;48.792;9.154;2023-05-15T04:37:20;4.65;;;3.22;;
25341;SDS011;13298;48.792;9.154;2023-05-15T04:39:45;4.68;;;3.47;;
25341;SDS011;13298;48.792;9.154;2023-05-15T04:42:11;5.85;;;3.47;;
25341;SDS011;13298;48.792;9.154;2023-05-15T04:44:37;6.63;;;4.43;;
25341;SDS011;13298;48.792;9.154;2023-05-15T04:47:03;4.68;;;3.50;;
25341;SDS011;13298;48.792;9.154;2023-05-15T04:49:29;4.80;;;3.33;;
25341;SDS011;13298;48.792;9.154;2023-05-15T04:51:54;4.35;;;3.60;;
25341;SDS011;13298;48.792;9.154;2023-05-15T04:54:20;4.63;;;3.83;;
25341;SDS011;13298;48.792;9.154;2023-05-15T04:56:46;4.50;;;3.40;;
25341;SDS011;13298;48.792;9.154;2023-05-15T04:59:12;5.22;;;3.90;;
25341;SDS011;13298;48.792;9.154;2023-05-15T05:01:38;5.10;;;3.75;;
25341;SDS011;13298;48.792;9.154;2023-05-15T05:04:04;7.13;;;3.65;;
25341;SDS011;13298;48.792;9.154;2023-05-15T05:06:30;5.07;;;3.80;;
25341;SDS011;13298;48.792;9.154;2023-05-15T05:08:55;4.53;;;3.70;;
25341;SDS011;13298;48.792;9.154;2023-05-15T05:11:22;4.85;;;3.67;;
25341;SDS011;13298;48.792;9.154;2023-05-15T05:13:47;3.80;;;3.10;;
25341;SDS011;13298;48.792;9.154;2023-05-15T05:16:13;4.93;;;3.75;;
25341;SDS011;13298;48.792;9.154;2023-05-15T05:18:39;7.28;;;3.83;;
25341;SDS011;13298;48.792;9.154;2023-05-15T05:21:05;4.70;;;3.88;;
25341;SDS011;13298;48.792;9.154;2023-05-15T05:23:30;5.35;;;3.78;;
25341;SDS011;13298;48.792;9.154;2023-05-15T05:25:57;4.13;;;3.30;;
25341;SDS011;13298;48.792;9.154;2023-05-15T05:28:24;5.60;;;3.58;;
25341;SDS011;13298;48.792;9.154;2023-05-15T05:30:50;6.35;;;3.70;;
25341;SDS011;13298;48.792;9.154;2023-05-15T05:33:16;4.72;;;3.92;;
25341;SDS011;13298;48.792;9.154;2023-05-15T05:35:41;6.28;;;3.67;;
25341;SDS011;13298;48.792;9.154;2023-05-15T05:38:07;6.55;;;4.70;;
25341;SDS011;13298;48.792;9.154;2023-05-15T05:40:33;5.25;;;4.03;;
25341;SDS011;13298;48.792;9.154;2023-05-15T05:42:59;5.00;;;4.40;;
25341;SDS011;13298;48.792;9.154;2023-05-15T05:45:25;7.63;;;5.93;;
25341;SDS011;13298;48.792;9.154;2023-05-15T05:47:51;7.43;;;5.05;;
25341;SDS011;13298;48.792;9.154;2023-05-15T05:50:21;7.35;;;5.22;;
25341;SDS011;13298;48.792;9.154;2023-05-15T05:52:48;6.93;;;5.13;;
25341;SDS011;13298;48.792;9.154;2023-05-15T05:55:14;7.75;;;5.50;;
25341;SDS011;13298;48.792;9.154;2023-05-15T05:57:39;8.55;;;4.93;;
25341;SDS011;13298;48.792;9.154;2023-05-15T06:00:05;10.63;;;5.57;;
25341;SDS011;13298;48.792;9.154;2023-05-15T06:02:38;8.48;;;5.53;;
25341;SDS011;13298;48.792;9.154;2023-05-15T06:05:04;8.25;;;6.00;;
25341;SDS011;13298;48.792;9.154;2023-05-15T06:07:32;8.25;;;7.07;;
25341;SDS011;13298;48.792;9.154;2023-05-15T06:09:59;9.65;;;6.93;;
25341;SDS011;13298;48.792;9.154;2023-05-15T06:12:25;8.95;;;6.05;;
25341;SDS011;13298;48.792;9.154;2023-05-15T06:14:51;11.88;;;6.13;;
25341;SDS011;13298;48.792;9.154;2023-05-15T06:17:17;7.63;;;5.43;;
25341;SDS011;13298;48.792;9.154;2023-05-15T06:19:44;9.57;;;6.50;;
25341;SDS011;13298;48.792;9.154;2023-05-15T06:22:10;8.63;;;5.93;;
25341;SDS011;13298;48.792;9.154;2023-05-15T06:24:36;7.03;;;6.00;;
25341;SDS011;13298;48.792;9.154;2023-05-15T06:27:02;7.25;;;6.05;;
25341;SDS011;13298;48.792;9.154;2023-05-15T06:29:27;10.20;;;5.35;;
25341;SDS011;13298;48.792;9.154;2023-05-15T06:31:53;12.10;;;5.80;;
25341;SDS011;13298;48.792;9.154;2023-05-15T06:34:19;7.88;;;5.90;;
25341;SDS011;13298;48.792;9.154;2023-05-15T06:36:44;8.27;;;5.38;;
25341;SDS011;13298;48.792;9.154;2023-05-15T06:39:10;6.72;;;4.97;;
25341;SDS011;13298;48.792;9.154;2023-05-15T06:41:36;7.65;;;5.70;;
25341;SDS011;13298;48.792;9.154;2023-05-15T06:44:02;11.45;;;5.43;;
25341;SDS011;13298;48.792;9.154;2023-05-15T06:46:28;6.60;;;5.10;;
25341;SDS011;13298;48.792;9.154;2023-05-15T06:48:54;6.85;;;5.20;;
25341;SDS011;13298;48.792;9.154;2023-05-15T06:51:20;6.78;;;3.90;;
25341;SDS011;13298;48.792;9.154;2023-05-15T06:53:46;5.35;;;4.07;;
25341;SDS011;13298;48.792;9.154;2023-05-15T06:56:11;8.23;;;3.80;;
25341;SDS011;13298;48.792;9.154;2023-05-15T06:58:37;11.50;;;3.40;;
25341;SDS011;13298;48.792;9.154;2023-05-15T07:01:03;6.03;;;3.20;;
25341;SDS011;13298;48.792;9.154;2023-05-15T07:03:30;5.22;;;3.90;;
25341;SDS011;13298;48.792;9.154;2023-05-15T07:05:56;5.35;;;4.35;;
25341;SDS011;13298;48.792;9.154;2023-05-15T07:08:22;10.57;;;3.92;;
25341;SDS011;13298;48.792;9.154;2023-05-15T07:10:48;5.32;;;3.67;;
25341;SDS011;13298;48.792;9.154;2023-05-15T07:13:17;3.88;;;3.38;;
25341;SDS011;13298;48.792;9.154;2023-05-15T07:15:44;8.23;;;3.90;;
25341;SDS011;13298;48.792;9.154;2023-05-15T07:18:10;3.30;;;2.70;;
25341;SDS011;13298;48.792;9.154;2023-05-15T07:20:36;3.58;;;2.92;;
25341;SDS011;13298;48.792;9.154;2023-05-15T07:23:02;3.95;;;2.72;;
25341;SDS011;13298;48.792;9.154;2023-05-15T07:25:28;4.13;;;3.00;;
25341;SDS011;13298;48.792;9.154;2023-05-15T07:27:55;5.10;;;3.00;;
25341;SDS011;13298;48.792;9.154;2023-05-15T07:30:20;5.65;;;2.55;;
25341;SDS011;13298;48.792;9.154;2023-05-15T07:32:46;7.72;;;2.33;;
25341;SDS011;13298;48.792;9.154;2023-05-15T07:35:12;3.60;;;2.88;;
25341;SDS011;13298;48.792;9.154;2023-05-15T07:37:38;3.10;;;2.55;;
25341;SDS011;13298;48.792;9.154;2023-05-15T07:40:05;3.85;;;3.30;;
25341;SDS011;13298;48.792;9.154;2023-05-15T07:42:31;6.03;;;2.83;;
25341;SDS011;13298;48.792;9.154;2023-05-15T07:44:57;4.10;;;3.00;;
25341;SDS011;13298;48.792;9.154;2023-05-15T07:47:23;6.35;;;2.70;;
25341;SDS011;13298;48.792;9.154;2023-05-15T07:49:48;4.82;;;2.85;;
25341;SDS011;13298;48.792;9.154;2023-05-15T07:52:14;6.18;;;3.10;;
25341;SDS011;13298;48.792;9.154;2023-05-15T07:54:40;3.63;;;2.80;;
25341;SDS011;13298;48.792;9.154;2023-05-15T07:57:06;4.15;;;3.33;;
25341;SDS011;13298;48.792;9.154;2023-05-15T07:59:33;3.53;;;2.90;;
25341;SDS011;13298;48.792;9.154;2023-05-15T08:01:59;5.85;;;3.22;;
25341;SDS011;13298;48.792;9.154;2023-05-15T08:04:25;6.03;;;2.85;;
25341;SDS011;13298;48.792;9.154;2023-05-15T08:06:51;3.45;;;2.75;;
25341;SDS011;13298;48.792;9.154;2023-05-15T08:09:17;3.55;;;2.30;;
25341;SDS011;13298;48.792;9.154;2023-05-15T08:11:43;3.50;;;3.10;;
25341;SDS011;13298;48.792;9.154;2023-05-15T08:14:08;4.18;;;2.75;;
25341;SDS011;13298;48.792;9.154;2023-05-15T08:16:34;3.85;;;2.60;;
25341;SDS011;13298;48.792;9.154;2023-05-15T08:19:00;4.43;;;2.40;;
25341;SDS011;13298;48.792;9.154;2023-05-15T08:21:29;3.33;;;2.72;;
25341;SDS011;13298;48.792;9.154;2023-05-15T08:23:55;3.58;;;2.47;;
25341;SDS011;13298;48.792;9.154;2023-05-15T08:26:22;2.83;;;2.00;;
25341;SDS011;13298;48.792;9.154;2023-05-15T08:28:48;3.42;;;2.30;;
25341;SDS011;13298;48.792;9.154;2023-05-15T08:31:14;4.10;;;2.20;;
25341;SDS011;13298;48.792;9.154;2023-05-15T08:33:40;4.25;;;2.50;;
25341;SDS011;13298;48.792;9.154;2023-05-15T08:36:06;4.28;;;2.83;;
25341;SDS011;13298;48.792;9.154;2023-05-15T08:38:32;2.90;;;2.55;;
25341;SDS011;13298;48.792;9.154;2023-05-15T08:41:00;3.75;;;3.03;;
25341;SDS011;13298;48.792;9.154;2023-05-15T08:43:32;3.22;;;2.30;;
25341;SDS011;13298;48.792;9.154;2023-05-15T08:46:01;2.65;;;2.20;;
25341;SDS011;13298;48.792;9.154;2023-05-15T08:48:28;3.50;;;1.88;;
25341;SDS011;13298;48.792;9.154;2023-05-15T08:50:54;2.47;;;2.10;;
25341;SDS011;13298;48.792;9.154;2023-05-15T08:53:22;4.18;;;2.45;;
25341;SDS011;13298;48.792;9.154;2023-05-15T08:55:48;3.95;;;2.55;;
25341;SDS011;13298;48.792;9.154;2023-05-15T08:58:14;2.58;;;2.35;;
25341;SDS011;13298;48.792;9.154;2023-05-15T09:00:41;5.40;;;2.58;;
25341;SDS011;13298;48.792;9.154;2023-05-15T09:03:11;3.90;;;2.33;;
25341;SDS011;13298;48.792;9.154;2023-05-15T09:05:42;7.47;;;3.03;;
25341;SDS011;13298;48.792;9.154;2023-05-15T09:08:08;2.67;;;2.45;;
25341;SDS011;13298;48.792;9.154;2023-05-15T09:10:34;5.03;;;2.38;;
25341;SDS011;13298;48.792;9.154;2023-05-15T09:13:00;2.65;;;2.30;;
25341;SDS011;13298;48.792;9.154;2023-05-15T09:15:26;6.25;;;2.78;;
25341;SDS011;13298;48.792;9.154;2023-05-15T09:17:54;8.75;;;3.15;;
25341;SDS011;13298;48.792;9.154;2023-05-15T09:20:28;3.28;;;2.30;;
25341;SDS011;13298;48.792;9.154;2023-05-15T09:22:59;3.67;;;2.58;;
25341;SDS011;13298;48.792;9.154;2023-05-15T09:25:31;5.22;;;3.13;;
25341;SDS011;13298;48.792;9.154;2023-05-15T09:27:58;3.05;;;2.55;;
25341;SDS011;13298;48.792;9.154;2023-05-15T09:30:25;3.97;;;2.55;;
25341;SDS011;13298;48.792;9.154;2023-05-15T09:32:52;3.53;;;2.47;;
25341;SDS011;13298;48.792;9.154;2023-05-15T09:35:32;3.40;;;2.78;;
25341;SDS011;13298;48.792;9.154;2023-05-15T09:38:00;3.47;;;2.70;;
25341;SDS011;13298;48.792;9.154;2023-05-15T09:40:28;2.95;;;2.65;;
25341;SDS011;13298;48.792;9.154;2023-05-15T09:42:56;6.53;;;2.80;;
25341;SDS011;13298;48.792;9.154;2023-05-15T09:45:23;6.40;;;3.10;;
25341;SDS011;13298;48.792;9.154;2023-05-15T09:47:51;4.57;;;2.90;;
25341;SDS011;13298;48.792;9.154;2023-05-15T09:50:31;4.70;;;2.40;;
25341;SDS011;13298;48.792;9.154;2023-05-15T09:52:59;7.90;;;3.17;;
25341;SDS011;13298;48.792;9.154;2023-05-15T09:55:26;3.08;;;2.60;;
25341;SDS011;13298;48.792;9.154;2023-05-15T10:00:35;3.33;;;2.65;;
25341;SDS011;13298;48.792;9.154;2023-05-15T10:03:03;4.03;;;2.47;;
25341;SDS011;13298;48.792;9.154;2023-05-15T10:05:30;3.30;;;2.67;;
25341;SDS011;13298;48.792;9.154;2023-05-15T10:07:56;4.53;;;2.70;;
25341;SDS011;13298;48.792;9.154;2023-05-15T10:10:23;4.55;;;3.00;;
25341;SDS011;13298;48.792;9.154;2023-05-15T10:12:50;4.10;;;2.72;;
25341;SDS011;13298;48.792;9.154;2023-05-15T10:15:18;3.67;;;2.80;;
25341;SDS011;13298;48.792;9.154;2023-05-15T10:17:46;5.93;;;2.50;;
25341;SDS011;13298;48.792;9.154;2023-05-15T10:20:17;3.90;;;2.80;;
25341;SDS011;13298;48.792;9.154;2023-05-15T10:22:46;3.88;;;2.85;;
25341;SDS011;13298;48.792;9.154;2023-05-15T10:25:15;5.03;;;3.13;;
25341;SDS011;13298;48.792;9.154;2023-05-15T10:28:15;4.82;;;2.30;;
25341;SDS011;13298;48.792;9.154;2023-05-15T10:30:42;3.35;;;2.15;;
25341;SDS011;13298;48.792;9.154;2023-05-15T10:33:08;4.85;;;2.75;;
25341;SDS011;13298;48.792;9.154;2023-05-15T10:35:37;3.53;;;3.05;;
25341;SDS011;13298;48.792;9.154;2023-05-15T10:38:04;3.72;;;2.30;;
25341;SDS011;13298;48.792;9.154;2023-05-15T10:40:31;4.22;;;2.50;;
25341;SDS011;13298;48.792;9.154;2023-05-15T10:42:58;6.05;;;2.50;;
25341;SDS011;13298;48.792;9.154;2023-05-15T10:45:27;3.08;;;2.10;;
25341;SDS011;13298;48.792;9.154;2023-05-15T10:47:54;3.67;;;2.15;;
25341;SDS011;13298;48.792;9.154;2023-05-15T10:50:21;3.50;;;1.90;;
25341;SDS011;13298;48.792;9.154;2023-05-15T10:52:49;3.42;;;2.50;;
25341;SDS011;13298;48.792;9.154;2023-05-15T10:55:16;3.35;;;2.47;;
25341;SDS011;13298;48.792;9.154;2023-05-15T10:57:45;3.92;;;2.20;;
25341;SDS011;13298;48.792;9.154;2023-05-15T11:02:46;2.25;;;1.90;;
25341;SDS011;13298;48.792;9.154;2023-05-15T11:05:12;2.22;;;1.80;;
25341;SDS011;13298;48.792;9.154;2023-05-15T11:07:38;2.75;;;1.60;;
25341;SDS011;13298;48.792;9.154;2023-05-15T11:12:58;2.90;;;2.22;;
25341;SDS011;13298;48.792;9.154;2023-05-15T11:15:25;2.05;;;1.85;;
25341;SDS011;13298;48.792;9.154;2023-05-15T11:18:01;3.10;;;1.90;;
25341;SDS011;13298;48.792;9.154;2023-05-15T11:20:31;4.60;;;2.45;;
25341;SDS011;13298;48.792;9.154;2023-05-15T11:23:21;2.90;;;2.22;;
25341;SDS011;13298;48.792;9.154;2023-05-15T11:25:57;2.92;;;2.10;;
25341;SDS011;13298;48.792;9.154;2023-05-15T11:28:26;3.17;;;2.00;;
25341;SDS011;13298;48.792;9.154;2023-05-15T11:30:54;3.33;;;2.10;;
25341;SDS011;13298;48.792;9.154;2023-05-15T11:33:24;5.43;;;1.90;;
25341;SDS011;13298;48.792;9.154;2023-05-15T11:35:57;3.72;;;2.28;;
25341;SDS011;13298;48.792;9.154;2023-05-15T11:38:24;4.38;;;1.88;;
25341;SDS011;13298;48.792;9.154;2023-05-15T11:40:51;3.45;;;1.80;;
25341;SDS011;13298;48.792;9.154;2023-05-15T11:43:29;2.47;;;2.00;;
25341;SDS011;13298;48.792;9.154;2023-05-15T11:48:42;2.55;;;2.00;;
25341;SDS011;13298;48.792;9.154;2023-05-15T11:51:15;2.13;;;1.90;;
25341;SDS011;13298;48.792;9.154;2023-05-15T11:53:50;2.15;;;1.80;;
25341;SDS011;13298;48.792;9.154;2023-05-15T11:56:19;2.05;;;1.90;;
25341;SDS011;13298;48.792;9.154;2023-05-15T11:58:54;3.65;;;2.30;;
25341;SDS011;13298;48.792;9.154;2023-05-15T12:01:22;3.75;;;2.15;;
25341;SDS011;13298;48.792;9.154;2023-05-15T12:03:48;3.33;;;2.20;;
25341;SDS011;13298;48.792;9.154;2023-05-15T12:06:15;2.38;;;1.85;;
25341;SDS011;13298;48.792;9.154;2023-05-15T12:08:41;3.70;;;1.98;;
25341;SDS011;13298;48.792;9.154;2023-05-15T12:11:08;2.33;;;2.10;;
25341;SDS011;13298;48.792;9.154;2023-05-15T12:13:34;3.10;;;2.10;;
25341;SDS011;13298;48.792;9.154;2023-05-15T12:16:03;3.85;;;2.10;;
25341;SDS011;13298;48.792;9.154;2023-05-15T12:18:30;3.90;;;2.20;;
25341;SDS011;13298;48.792;9.154;2023-05-15T12:20:56;6.53;;;2.30;;
25341;SDS011;13298;48.792;9.154;2023-05-15T12:23:23;3.28;;;2.05;;
25341;SDS011;13298;48.792;9.154;2023-05-15T12:25:51;2.45;;;1.98;;
25341;SDS011;13298;48.792;9.154;2023-05-15T12:28:22;5.53;;;2.47;;
25341;SDS011;13298;48.792;9.154;2023-05-15T12:30:48;3.80;;;1.88;;
25341;SDS011;13298;48.792;9.154;2023-05-15T12:33:14;3.75;;;2.20;;
25341;SDS011;13298;48.792;9.154;2023-05-15T12:35:41;2.38;;;2.03;;
25341;SDS011;13298;48.792;9.154;2023-05-15T12:38:14;3.15;;;2.00;;
25341;SDS011;13298;48.792;9.154;2023-05-15T12:40:40;3.35;;;2.05;;
25341;SDS011;13298;48.792;9.154;2023-05-15T12:43:09;4.60;;;1.98;;
25341;SDS011;13298;48.792;9.154;2023-05-15T12:45:37;2.20;;;2.00;;
25341;SDS011;13298;48.792;9.154;2023-05-15T12:48:03;3.17;;;1.88;;
25341;SDS011;13298;48.792;9.154;2023-05-15T12:50:31;3.90;;;1.85;;
25341;SDS011;13298;48.792;9.154;2023-05-15T12:53:02;3.70;;;2.35;;
25341;SDS011;13298;48.792;9.154;2023-05-15T12:55:39;2.78;;;1.95;;
25341;SDS011;13298;48.792;9.154;2023-05-15T12:58:09;2.78;;;2.00;;
25341;SDS011;13298;48.792;9.154;2023-05-15T13:00:40;5.22;;;2.42;;
25341;SDS011;13298;48.792;9.154;2023-05-15T13:03:08;3.03;;;2.17;;
25341;SDS011;13298;48.792;9.154;2023-05-15T13:05:35;5.55;;;2.00;;
25341;SDS011;13298;48.792;9.154;2023-05-15T13:08:03;3.95;;;2.15;;
25341;SDS011;13298;48.792;9.154;2023-05-15T13:10:31;4.78;;;2.35;;
25341;SDS011;13298;48.792;9.154;2023-05-15T13:13:00;3.47;;;2.10;;
25341;SDS011;13298;48.792;9.154;2023-05-15T13:18:06;6.05;;;2.20;;
25341;SDS011;13298;48.792;9.154;2023-05-15T13:20:41;4.90;;;2.53;;
25341;SDS011;13298;48.792;9.154;2023-05-15T13:23:13;2.83;;;2.53;;
25341;SDS011;13298;48.792;9.154;2023-05-15T13:25:42;5.93;;;2.50;;
25341;SDS011;13298;48.792;9.154;2023-05-15T13:28:08;4.32;;;2.88;;
25341;SDS011;13298;48.792;9.154;2023-05-15T13:30:35;5.22;;;2.33;;
25341;SDS011;13298;48.792;9.154;2023-05-15T13:33:05;4.60;;;2.40;;
25341;SDS011;13298;48.792;9.154;2023-05-15T13:35:34;1.98;;;1.77;;
25341;SDS011;13298;48.792;9.154;2023-05-15T13:38:01;5.13;;;2.53;;
25341;SDS011;13298;48.792;9.154;2023-05-15T13:40:26;3.35;;;2.50;;
25341;SDS011;13298;48.792;9.154;2023-05-15T13:42:52;2.60;;;2.20;;
25341;SDS011;13298;48.792;9.154;2023-05-15T13:45:18;5.45;;;2.88;;
25341;SDS011;13298;48.792;9.154;2023-05-15T13:47:44;6.30;;;2.70;;
25341;SDS011;13298;48.792;9.154;2023-05-15T13:50:10;3.42;;;2.83;;
25341;SDS011;13298;48.792;9.154;2023-05-15T13:52:38;6.72;;;3.00;;
25341;SDS011;13298;48.792;9.154;2023-05-15T13:55:05;3.17;;;2.63;;
25341;SDS011;13298;48.792;9.154;2023-05-15T13:57:34;4.57;;;2.80;;
25341;SDS011;13298;48.792;9.154;2023-05-15T14:00:05;5.80;;;2.90;;
25341;SDS011;13298;48.792;9.154;2023-05-15T14:02:37;3.92;;;2.30;;
25341;SDS011;13298;48.792;9.154;2023-05-15T14:05:04;3.33;;;3.00;;
25341;SDS011;13298;48.792;9.154;2023-05-15T14:07:30;2.80;;;2.50;;
25341;SDS011;13298;48.792;9.154;2023-05-15T14:09:56;3.03;;;2.33;;
25341;SDS011;13298;48.792;9.154;2023-05-15T14:12:22;5.70;;;3.03;;
25341;SDS011;13298;48.792;9.154;2023-05-15T14:14:48;4.22;;;2.55;;
25341;SDS011;13298;48.792;9.154;2023-05-15T14:17:14;4.75;;;2.70;;
25341;SDS011;13298;48.792;9.154;2023-05-15T14:19:40;3.35;;;2.15;;
25341;SDS011;13298;48.792;9.154;2023-05-15T14:22:06;3.10;;;2.75;;
25341;SDS011;13298;48.792;9.154;2023-05-15T14:24:32;3.35;;;2.40;;
25341;SDS011;13298;48.792;9.154;2023-05-15T14:26:58;5.88;;;2.70;;
25341;SDS011;13298;48.792;9.154;2023-05-15T14:29:24;3.20;;;2.45;;
25341;SDS011;13298;48.792;9.154;2023-05-15T14:31:50;4.00;;;2.50;;
25341;SDS011;13298;48.792;9.154;2023-05-15T14:34:16;4.70;;;2.63;;
25341;SDS011;13298;48.792;9.154;2023-05-15T14:36:43;4.60;;;2.80;;
25341;SDS011;13298;48.792;9.154;2023-05-15T14:39:10;4.68;;;2.53;;
25341;SDS011;13298;48.792;9.154;2023-05-15T14:41:38;3.00;;;2.42;;
25341;SDS011;13298;48.792;9.154;2023-05-15T14:44:04;4.45;;;2.63;;
25341;SDS011;13298;48.792;9.154;2023-05-15T14:46:29;3.10;;;2.80;;
25341;SDS011;13298;48.792;9.154;2023-05-15T14:48:55;3.05;;;2.38;;
25341;SDS011;13298;48.792;9.154;2023-05-15T14:51:21;3.70;;;2.55;;
25341;SDS011;13298;48.792;9.154;2023-05-15T14:53:46;5.32;;;2.70;;
25341;SDS011;13298;48.792;9.154;2023-05-15T14:59:02;7.78;;;3.17;;
25341;SDS011;13298;48.792;9.154;2023-05-15T15:01:28;3.00;;;2.47;;
25341;SDS011;13298;48.792;9.154;2023-05-15T15:03:54;3.10;;;2.70;;
25341;SDS011;13298;48.792;9.154;2023-05-15T15:06:19;4.20;;;2.40;;
25341;SDS011;13298;48.792;9.154;2023-05-15T15:08:45;3.53;;;2.65;;
25341;SDS011;13298;48.792;9.154;2023-05-15T15:11:11;3.78;;;2.70;;
25341;SDS011;13298;48.792;9.154;2023-05-15T15:13:36;4.25;;;2.25;;
25341;SDS011;13298;48.792;9.154;2023-05-15T15:16:02;2.50;;;2.30;;
25341;SDS011;13298;48.792;9.154;2023-05-15T15:18:28;5.03;;;2.70;;
25341;SDS011;13298;48.792;9.154;2023-05-15T15:20:54;5.68;;;2.80;;
25341;SDS011;13298;48.792;9.154;2023-05-15T15:23:20;3.08;;;2.30;;
25341;SDS011;13298;48.792;9.154;2023-05-15T15:25:46;2.72;;;2.30;;